Terminal Aerodrome Forecast
Issued by NWS Atlanta, GA

Home | Current Version | Previous Version | Text Only | Print | Product List | Glossary On
Versions: 1 2 3 4 5 6 7 8 9 10 11 12 13 14 15 16 17 18 19 20 21 22 23 24 25 26 27 28 29 30 31 32 33 34 35 36 37 38 39 40 41
000
FTUS42 KFFC 310520
TAFATL
TAF
KATL 310520Z 3106/0112 07008KT 6SM -DZ OVC007
     FM310900 07008KT P6SM OVC005
      TEMPO 3109/3113 5SM BR
     FM311500 05006KT P6SM BKN010
     FM311700 03006KT P6SM BKN025
     FM311900 03006KT P6SM SCT040
     FM010000 VRB03KT P6SM SCT045 SCT250=

USA.gov is the U.S. government's official web portal to all federal, state and local government web resources and services.